Time;durP1;ratioP1;P1;durP2;ratioP2;P2;SDS_P1;SDS_P2;PMS_P1;PMS_P2;Temp;Humidity;BMP_temperature;BMP_pressure;BME280_temperature;BME280_humidity;BME280_pressure;Samples;Min_cycle;Max_cycle;Signal;HPM_P1;HPM_P2
2021/12/08 00:01:17;;;;;;;38.95;20.77;;;;;;;1.36;60.80;99340.22;7658278;32;39427;-70
2021/12/08 00:05:34;;;;;;;43.80;19.60;;;;;;;1.31;61.05;99335.53;7658161;32;40922;-70
2021/12/08 00:10:03;;;;;;;44.88;19.80;;;;;;;1.11;61.33;99346.44;7658022;32;38705;-69
2021/12/08 00:14:20;;;;;;;40.08;19.42;;;;;;;1.16;60.94;99343.09;7658156;32;37535;-70
2021/12/08 00:18:37;;;;;;;44.55;20.80;;;;;;;1.26;60.31;99350.63;7658032;32;39992;-70
2021/12/08 00:22:54;;;;;;;42.90;20.33;;;;;;;1.29;60.05;99367.16;7657894;32;39871;-70
2021/12/08 00:27:10;;;;;;;43.35;20.30;;;;;;;1.19;60.29;99371.38;7657739;32;37564;-69
2021/12/08 00:31:26;;;;;;;37.80;20.12;;;;;;;1.22;60.39;99362.88;7657923;32;37783;-69
2021/12/08 00:35:45;;;;;;;43.65;20.88;;;;;;;1.09;60.76;99363.84;7657713;32;40053;-69
2021/12/08 00:40:05;;;;;;;43.08;20.77;;;;;;;1.20;60.53;99364.97;7657593;32;40577;-70
2021/12/08 00:44:21;;;;;;;41.08;20.60;;;;;;;1.17;60.40;99379.62;7657490;32;38777;-70
2021/12/08 00:48:39;;;;;;;43.38;20.80;;;;;;;1.03;60.78;99378.94;7657528;32;37305;-70
2021/12/08 00:52:57;;;;;;;41.08;20.27;;;;;;;1.08;60.48;99378.28;7656163;32;38257;-70
2021/12/08 00:57:14;;;;;;;44.85;21.55;;;;;;;1.07;60.52;99385.53;7657122;32;39983;-70
2021/12/08 01:01:30;;;;;;;43.55;21.08;;;;;;;0.84;61.06;99379.94;7659938;32;37531;-69
2021/12/08 01:05:56;;;;;;;44.55;19.27;;;;;;;0.91;61.12;99391.44;7660390;32;38147;-70
2021/12/08 01:10:20;;;;;;;40.05;20.23;;;;;;;1.04;60.22;99364.47;7660388;32;39360;-68
2021/12/08 01:14:50;;;;;;;39.67;18.50;;;;;;;0.99;60.23;99360.81;7660241;32;40078;-69
2021/12/08 01:19:06;;;;;;;41.35;19.25;;;;;;;0.94;60.23;99348.03;7660137;32;38222;-69
2021/12/08 01:23:22;;;;;;;41.50;18.62;;;;;;;1.06;59.26;99340.09;7660291;32;37974;-70
2021/12/08 01:27:39;;;;;;;38.55;20.42;;;;;;;1.12;58.60;99336.50;7659942;32;39250;-68
2021/12/08 01:31:55;;;;;;;42.65;19.35;;;;;;;1.05;58.21;99333.91;7659918;32;40802;-69
2021/12/08 01:36:11;;;;;;;45.22;19.40;;;;;;;1.19;57.49;99326.56;7659795;32;38616;-68
2021/12/08 01:40:27;;;;;;;41.33;20.37;;;;;;;1.16;57.65;99327.00;7659824;32;38349;-69
2021/12/08 01:49:19;;;;;;;40.25;19.42;;;;;;;0.62;59.18;99312.38;7659827;32;40708;-68
2021/12/08 01:53:36;;;;;;;39.00;18.62;;;;;;;0.62;59.05;99312.38;7659700;32;37890;-69
2021/12/08 01:57:53;;;;;;;41.72;18.65;;;;;;;0.64;58.93;99300.41;7659674;32;38270;-70
2021/12/08 02:02:09;;;;;;;37.55;18.90;;;;;;;0.39;59.74;99292.34;7659721;32;39301;-70
2021/12/08 02:06:26;;;;;;;38.85;19.27;;;;;;;0.36;60.09;99280.19;7659614;32;39933;-69
2021/12/08 02:10:42;;;;;;;43.13;20.12;;;;;;;0.44;59.91;99276.41;7659719;32;37974;-69
2021/12/08 02:14:59;;;;;;;42.45;20.62;;;;;;;0.39;60.19;99276.25;7659700;32;36924;-70
2021/12/08 02:19:15;;;;;;;45.08;19.35;;;;;;;0.33;60.31;99267.22;7659313;32;39288;-70
2021/12/08 02:23:31;;;;;;;41.47;19.10;;;;;;;0.28;60.45;99264.38;7659152;32;40850;-70
2021/12/08 02:27:48;;;;;;;48.45;20.00;;;;;;;0.28;60.52;99252.84;7659329;32;38730;-70
2021/12/08 02:32:26;;;;;;;41.78;19.02;;;;;;;0.32;59.83;99257.53;7659303;32;36982;-70
2021/12/08 02:50:45;;;;;;;41.55;19.37;;;;;;;-0.01;60.83;99304.12;7659170;32;37307;-70
2021/12/08 02:55:07;;;;;;;39.42;18.95;;;;;;;0.28;60.13;99309.13;7659105;32;39967;-70
2021/12/08 02:59:24;;;;;;;41.63;21.17;;;;;;;0.11;60.39;99316.88;7658914;32;39900;-70
2021/12/08 03:03:40;;;;;;;38.45;18.58;;;;;;;0.14;60.47;99322.63;7658740;32;38660;-70
2021/12/08 03:07:57;;;;;;;40.58;19.98;;;;;;;0.28;59.59;99318.00;7658904;32;37931;-69
2021/12/08 03:12:13;;;;;;;40.65;18.98;;;;;;;-0.01;59.92;99304.12;7658826;32;40083;-70
2021/12/08 03:16:29;;;;;;;44.58;19.83;;;;;;;0.03;59.58;99303.72;7658741;32;39855;-69
2021/12/08 03:20:46;;;;;;;36.72;18.30;;;;;;;0.12;59.27;99308.63;7658103;32;38821;-69
2021/12/08 03:25:06;;;;;;;43.30;20.70;;;;;;;0.29;58.38;99294.69;7658402;32;37265;-69
2021/12/08 03:29:34;;;;;;;40.17;19.30;;;;;;;0.01;58.93;99297.75;7658334;32;39410;-68
2021/12/08 03:33:50;;;;;;;41.60;19.25;;;;;;;-0.11;59.25;99290.38;7659068;32;38205;-70
2021/12/08 03:38:07;;;;;;;37.50;18.42;;;;;;;-0.22;59.09;99286.53;7658401;32;38462;-70
2021/12/08 03:42:26;;;;;;;46.13;20.40;;;;;;;-0.17;58.64;99295.75;7658522;32;37278;-70
2021/12/08 03:46:42;;;;;;;39.17;20.33;;;;;;;-0.09;58.24;99303.56;7658527;32;38967;-70
2021/12/08 03:50:59;;;;;;;42.33;20.12;;;;;;;0.09;57.87;99305.53;7658364;32;40028;-70
2021/12/08 03:55:16;;;;;;;44.33;19.60;;;;;;;-0.16;58.39;99305.47;7658445;32;37842;-69
2021/12/08 03:59:32;;;;;;;41.53;18.85;;;;;;;-0.22;58.73;99307.16;7658280;32;36928;-70
2021/12/08 04:03:50;;;;;;;43.38;18.83;;;;;;;-0.24;59.22;99303.84;7658255;32;39830;-69
2021/12/08 04:08:15;;;;;;;41.65;19.00;;;;;;;-0.52;59.92;99325.59;7658213;32;40069;-70
2021/12/08 04:12:31;;;;;;;41.40;18.95;;;;;;;-0.26;59.02;99308.59;7658094;32;37842;-69
2021/12/08 04:17:02;;;;;;;40.25;18.50;;;;;;;-0.21;58.49;99298.06;7658202;32;37220;-69
2021/12/08 04:21:19;;;;;;;36.15;19.12;;;;;;;-0.12;58.38;99307.50;7658040;32;39763;-70
2021/12/08 04:25:40;;;;;;;41.65;19.75;;;;;;;-0.41;58.88;99298.97;7657693;32;39904;-69
2021/12/08 04:29:57;;;;;;;43.30;20.30;;;;;;;-0.34;58.50;99282.88;7657813;32;37634;-69
2021/12/08 04:34:20;;;;;;;42.60;20.65;;;;;;;-0.64;59.27;99279.88;7656577;32;38272;-68
2021/12/08 04:38:41;;;;;;;39.10;19.90;;;;;;;-0.64;59.42;99286.09;7657705;32;39467;-70
2021/12/08 04:43:09;;;;;;;56.78;24.63;;;;;;;-0.47;58.96;99281.06;7657636;32;40082;-69
2021/12/08 04:47:33;;;;;;;46.37;23.05;;;;;;;-0.55;59.29;99289.34;7657749;32;38157;-69
2021/12/08 04:51:57;;;;;;;43.83;20.45;;;;;;;-0.80;59.79;99286.53;7657439;32;37347;-69
2021/12/08 05:10:16;;;;;;;38.40;19.73;;;;;;;-0.84;60.03;99294.16;7657025;32;38055;-69
2021/12/08 05:14:42;;;;;;;38.92;18.70;;;;;;;-0.64;59.29;99287.91;7656907;32;39127;-69
2021/12/08 05:19:00;;;;;;;36.17;19.23;;;;;;;-0.95;60.01;99265.34;7656752;32;39813;-69
2021/12/08 05:23:23;;;;;;;42.42;19.30;;;;;;;-1.07;60.79;99261.69;7656586;32;37572;-69
2021/12/08 05:27:44;;;;;;;39.65;17.90;;;;;;;-0.83;59.90;99263.69;7656458;32;37225;-68
2021/12/08 05:32:02;;;;;;;49.95;21.95;;;;;;;-0.88;59.63;99276.87;7656475;32;39837;-69
2021/12/08 05:36:19;;;;;;;57.60;25.55;;;;;;;-0.65;58.38;99271.03;7655260;32;38958;-69
2021/12/08 05:40:57;;;;;;;39.95;19.65;;;;;;;-0.86;58.94;99271.28;7656077;32;37882;-69
2021/12/08 05:45:16;;;;;;;30.40;16.17;;;;;;;-0.54;57.97;99266.06;7657318;32;37409;-69
2021/12/08 05:49:32;;;;;;;40.83;18.62;;;;;;;-0.43;57.79;99281.44;7658751;32;39809;-69
2021/12/08 05:53:51;;;;;;;38.88;18.25;;;;;;;-0.52;58.20;99272.84;7659787;32;40810;-69
2021/12/08 05:58:08;;;;;;;42.00;20.60;;;;;;;-0.51;58.39;99268.31;7659915;32;37043;-68
2021/12/08 06:02:28;;;;;;;34.53;17.05;;;;;;;-0.57;58.15;99275.31;7659672;32;37948;-69
2021/12/08 06:06:47;;;;;;;31.75;17.30;;;;;;;-0.95;58.88;99276.06;7659706;32;39530;-69
2021/12/08 06:11:05;;;;;;;42.08;20.60;;;;;;;-0.85;58.79;99267.59;7659620;32;40820;-69
2021/12/08 06:15:21;;;;;;;39.97;22.08;;;;;;;-0.87;60.62;99273.16;7659408;32;38820;-69
2021/12/08 06:19:40;;;;;;;34.63;17.37;;;;;;;-0.96;60.44;99274.44;7659521;32;38015;-69
2021/12/08 06:23:58;;;;;;;35.60;19.77;;;;;;;-0.71;59.27;99284.44;7659345;32;39074;-69
2021/12/08 06:28:14;;;;;;;41.22;19.65;;;;;;;-0.99;59.52;99288.22;7659401;32;39604;-70
2021/12/08 06:32:30;;;;;;;35.88;17.75;;;;;;;-1.03;59.96;99279.78;7659203;32;38447;-70
2021/12/08 06:37:00;;;;;;;34.13;17.25;;;;;;;-0.87;59.37;99289.22;7659262;32;36906;-69
2021/12/08 06:41:37;;;;;;;28.17;15.88;;;;;;;-1.17;59.12;99291.56;7659128;32;39901;-69
2021/12/08 06:45:55;;;;;;;30.67;17.08;;;;;;;-1.32;59.36;99286.41;7659135;32;40727;-69
2021/12/08 06:50:20;;;;;;;37.53;18.15;;;;;;;-1.10;58.71;99296.88;7659086;32;36928;-69
2021/12/08 06:55:07;;;;;;;36.50;18.98;;;;;;;-1.09;58.93;99279.81;7659116;32;37252;-70
2021/12/08 06:59:32;;;;;;;37.45;17.55;;;;;;;-1.20;59.47;99290.09;7658280;32;39323;-70
2021/12/08 07:04:05;;;;;;;40.83;17.48;;;;;;;-1.09;59.13;99298.53;7658895;32;40022;-69
2021/12/08 07:08:22;;;;;;;36.20;17.67;;;;;;;-1.32;59.36;99279.19;7658887;32;37908;-69
2021/12/08 07:12:44;;;;;;;33.05;17.73;;;;;;;-0.98;58.66;99288.00;7658821;32;37373;-70
2021/12/08 07:17:05;;;;;;;31.25;15.30;;;;;;;-0.81;58.28;99292.91;7658874;32;40144;-70
2021/12/08 07:21:25;;;;;;;34.20;15.43;;;;;;;-0.39;64.91;99280.00;7658701;32;40000;-69
2021/12/08 07:25:42;;;;;;;29.90;15.18;;;;;;;-0.42;60.26;99270.53;7658338;32;37970;-70
2021/12/08 07:30:03;;;;;;;32.97;16.92;;;;;;;-0.28;59.80;99278.50;7658615;32;37533;-69
2021/12/08 07:34:21;;;;;;;26.45;15.15;;;;;;;-0.18;59.03;99265.47;7658688;32;39158;-69
2021/12/08 07:38:38;;;;;;;33.03;16.35;;;;;;;0.00;58.48;99256.72;7658494;32;39921;-68
2021/12/08 07:43:09;;;;;;;33.42;15.93;;;;;;;-0.31;58.01;99262.84;7658535;32;38072;-69
2021/12/08 07:47:28;;;;;;;34.50;16.45;;;;;;;-0.41;58.27;99264.16;7658609;32;38034;-68
2021/12/08 07:51:50;;;;;;;38.78;17.85;;;;;;;0.21;57.21;99258.25;7658463;32;39050;-71
2021/12/08 07:56:08;;;;;;;43.95;19.80;;;;;;;-0.29;58.76;99260.81;7658577;32;41159;-70
2021/12/08 08:00:31;;;;;;;45.17;20.77;;;;;;;-0.08;59.09;99265.84;7658150;32;38864;-70
2021/12/08 08:04:48;;;;;;;36.47;19.30;;;;;;;0.37;58.82;99268.41;7658289;32;37255;-69
2021/12/08 08:09:08;;;;;;;41.17;20.15;;;;;;;0.17;60.57;99275.78;7657976;32;39346;-69
2021/12/08 08:13:26;;;;;;;41.20;21.17;;;;;;;0.63;59.03;99282.66;7658173;32;39740;-69
2021/12/08 08:17:46;;;;;;;38.22;19.95;;;;;;;0.62;58.76;99272.16;7657968;32;38774;-69
2021/12/08 08:22:10;;;;;;;43.13;22.27;;;;;;;0.39;60.45;99281.59;7658033;32;37545;-70
2021/12/08 08:26:29;;;;;;;43.20;21.17;;;;;;;1.05;58.84;99280.22;7657821;32;40142;-69
2021/12/08 08:31:10;;;;;;;45.92;22.25;;;;;;;1.16;58.11;99285.91;7657830;32;40950;-70
2021/12/08 08:35:34;;;;;;;45.58;21.87;;;;;;;1.11;58.38;99284.69;7657791;32;38636;-71
2021/12/08 08:39:59;;;;;;;42.40;22.92;;;;;;;1.30;58.07;99284.72;7657758;32;37793;-70
2021/12/08 08:44:29;;;;;;;52.92;24.02;;;;;;;1.30;57.90;99290.09;7657709;32;39399;-69
2021/12/08 08:48:51;;;;;;;39.15;20.73;;;;;;;1.78;57.24;99280.44;7657513;32;40899;-70
2021/12/08 08:53:08;;;;;;;41.50;21.52;;;;;;;1.70;57.94;99286.94;7657237;32;37929;-69
2021/12/08 08:57:34;;;;;;;42.40;21.10;;;;;;;2.19;56.92;99286.88;7657313;32;37674;-70
2021/12/08 09:01:54;;;;;;;36.65;18.40;;;;;;;2.36;56.23;99278.97;7656069;32;40206;-70
2021/12/08 09:06:23;;;;;;;36.00;18.10;;;;;;;2.71;56.60;99286.28;7657157;32;39592;-70
2021/12/08 09:10:49;;;;;;;38.70;20.60;;;;;;;2.57;55.45;99278.44;7656932;32;37886;-69
2021/12/08 09:15:17;;;;;;;43.80;21.15;;;;;;;3.05;54.43;99276.56;7656909;32;37234;-69
2021/12/08 09:19:45;;;;;;;35.37;18.43;;;;;;;2.84;55.53;99278.00;7657497;32;39137;-69
2021/12/08 09:24:12;;;;;;;37.67;19.15;;;;;;;3.19;54.37;99258.28;7660088;32;39919;-69
2021/12/08 09:28:42;;;;;;;38.08;19.83;;;;;;;3.76;53.63;99255.72;7659752;32;38508;-70
2021/12/08 09:33:01;;;;;;;36.67;18.58;;;;;;;3.45;54.74;99239.97;7659973;32;37984;-70
2021/12/08 09:37:19;;;;;;;30.33;16.27;;;;;;;3.33;54.33;99237.34;7659867;32;39379;-70
2021/12/08 09:42:07;;;;;;;30.12;15.77;;;;;;;3.57;54.13;99235.41;7640743;32;40904;-70
2021/12/08 09:46:36;;;;;;;34.13;17.52;;;;;;;3.88;52.84;99238.66;7631778;32;37968;-73
2021/12/08 09:50:53;;;;;;;35.55;16.58;;;;;;;4.37;52.69;99214.69;7632445;32;38333;-71
2021/12/08 09:55:12;;;;;;;30.98;16.75;;;;;;;4.59;51.43;99214.78;7633490;32;39388;-70
2021/12/08 09:59:32;;;;;;;35.20;18.17;;;;;;;4.43;51.95;99205.63;7633083;32;39970;-70
2021/12/08 10:03:52;;;;;;;36.67;19.83;;;;;;;4.87;50.79;99184.13;7632612;32;37751;-70
2021/12/08 10:08:09;;;;;;;37.00;19.95;;;;;;;5.16;50.86;99183.97;7633433;32;37340;-70
2021/12/08 10:12:25;;;;;;;38.28;19.17;;;;;;;5.17;50.76;99185.59;7633275;32;40101;-70
2021/12/08 10:16:42;;;;;;;35.80;18.85;;;;;;;5.20;49.90;99177.00;7633235;32;40204;-71
2021/12/08 10:20:58;;;;;;;35.90;18.52;;;;;;;5.95;48.65;99165.63;7632953;32;37831;-70
2021/12/08 10:25:21;;;;;;;30.10;16.65;;;;;;;6.06;48.26;99166.56;7633017;32;37199;-71
2021/12/08 10:29:37;;;;;;;30.87;16.27;;;;;;;6.15;48.62;99165.03;7632098;32;39314;-71
2021/12/08 10:38:38;;;;;;;29.75;16.58;;;;;;;6.24;47.86;99141.81;7632352;32;38447;-70
2021/12/08 10:42:56;;;;;;;35.00;17.50;;;;;;;5.95;48.39;99144.81;7631029;32;37352;-69
2021/12/08 10:47:22;;;;;;;32.85;17.40;;;;;;;5.84;49.48;99143.88;7632916;32;39078;-70
2021/12/08 10:56:24;;;;;;;37.83;18.08;;;;;;;6.63;47.25;99144.25;7632811;32;38636;-70
2021/12/08 11:00:40;;;;;;;31.27;17.37;;;;;;;7.33;47.61;99135.91;7632762;32;37712;-70
2021/12/08 11:04:56;;;;;;;34.63;18.10;;;;;;;7.55;45.86;99124.84;7632653;32;39433;-70
2021/12/08 11:09:19;;;;;;;34.13;17.98;;;;;;;7.72;44.76;99121.88;7632658;32;40046;-70
2021/12/08 11:13:41;;;;;;;27.47;14.50;;;;;;;7.97;45.84;99117.56;7632683;32;37869;-71
2021/12/08 11:18:14;;;;;;;29.15;16.67;;;;;;;8.93;44.77;99107.66;7632546;32;37275;-71
2021/12/08 11:22:31;;;;;;;31.92;17.12;;;;;;;9.07;42.89;99104.34;7632629;32;39000;-71
2021/12/08 11:26:51;;;;;;;32.00;17.37;;;;;;;9.37;41.80;99096.03;7632311;32;40814;-71
2021/12/08 11:31:11;;;;;;;36.53;19.05;;;;;;;10.09;41.30;99089.25;7632422;32;38042;-71
2021/12/08 11:35:32;;;;;;;35.22;18.52;;;;;;;10.13;40.81;99084.88;7632454;32;37303;-71
2021/12/08 11:39:52;;;;;;;35.75;19.70;;;;;;;10.36;40.02;99068.91;7632466;32;39168;-71
2021/12/08 11:44:11;;;;;;;40.38;21.10;;;;;;;10.21;40.27;99075.28;7631896;32;39718;-72
2021/12/08 11:48:49;;;;;;;38.58;20.83;;;;;;;10.73;39.47;99081.03;7632072;32;37958;-72
2021/12/08 11:53:05;;;;;;;36.78;20.30;;;;;;;10.94;39.84;99076.97;7631153;32;37629;-73
2021/12/08 11:57:32;;;;;;;37.78;19.77;;;;;;;10.86;39.63;99085.78;7631174;32;40142;-72
2021/12/08 12:01:49;;;;;;;36.92;19.35;;;;;;;11.05;38.85;99077.66;7632058;32;39651;-72
2021/12/08 12:06:05;;;;;;;37.83;18.75;;;;;;;11.33;39.03;99069.66;7631894;32;37973;-72
2021/12/08 12:10:24;;;;;;;31.23;17.90;;;;;;;11.73;37.44;99070.16;7632013;32;37952;-73
2021/12/08 12:14:45;;;;;;;35.67;18.85;;;;;;;12.19;36.26;99061.22;7630858;32;39483;-73
2021/12/08 12:19:06;;;;;;;30.83;17.67;;;;;;;12.26;36.60;99061.66;7627055;32;157331;-70
2021/12/08 12:23:30;;;;;;;28.38;16.27;;;;;;;12.71;34.92;99045.50;7631621;32;38019;-73
2021/12/08 12:28:24;;;;;;;35.55;17.50;;;;;;;12.42;35.05;99042.22;7631630;32;37205;-71
2021/12/08 12:32:47;;;;;;;37.28;18.65;;;;;;;13.19;34.11;99043.41;7631492;32;39803;-73
2021/12/08 12:37:17;;;;;;;33.42;17.27;;;;;;;13.29;34.74;99049.47;7631514;32;40664;-73
2021/12/08 12:41:33;;;;;;;31.45;18.02;;;;;;;13.66;33.60;99047.59;7630308;32;38746;-71
2021/12/08 12:46:01;;;;;;;34.97;18.12;;;;;;;13.64;32.84;99046.25;7631352;32;37184;-72
2021/12/08 12:50:21;;;;;;;33.88;18.92;;;;;;;13.61;33.10;99027.72;7630207;32;40120;-72
2021/12/08 12:54:39;;;;;;;37.45;20.17;;;;;;;13.81;33.34;99019.00;7630064;32;40081;-72
2021/12/08 12:58:56;;;;;;;34.45;19.60;;;;;;;13.50;33.26;99018.94;7630963;32;37751;-72
2021/12/08 13:03:43;;;;;;;38.03;20.77;;;;;;;13.21;33.07;99019.28;7630934;32;37906;-74
2021/12/08 13:08:00;;;;;;;36.55;21.00;;;;;;;13.61;32.22;99016.78;7630806;32;39354;-72
2021/12/08 13:12:39;;;;;;;35.35;20.73;;;;;;;13.40;32.79;99020.00;7630738;32;40724;-72
2021/12/08 13:17:14;;;;;;;35.88;20.40;;;;;;;13.90;32.08;99019.03;7630487;32;38740;-72
2021/12/08 13:21:39;;;;;;;37.30;20.00;;;;;;;14.54;30.69;99006.94;7624582;32;38294;-72
2021/12/08 13:26:04;;;;;;;34.65;20.85;;;;;;;15.39;29.52;99007.47;7629579;32;39281;-71
2021/12/08 13:30:21;;;;;;;35.80;20.45;;;;;;;17.40;26.24;99000.44;7629545;32;40047;-70
2021/12/08 13:34:41;;;;;;;32.75;19.95;;;;;;;19.54;22.58;99004.34;7629469;32;38434;-77
2021/12/08 13:39:11;;;;;;;37.95;21.15;;;;;;;21.19;20.21;99000.28;7628876;32;37488;-77
2021/12/08 13:43:33;;;;;;;36.63;21.35;;;;;;;21.48;18.94;99000.94;7629081;32;40179;-77
2021/12/08 13:47:51;;;;;;;30.73;19.70;;;;;;;21.59;18.71;99007.50;7629769;32;40038;-77
2021/12/08 13:52:07;;;;;;;33.42;20.08;;;;;;;22.11;17.87;99008.91;7615544;32;36091;-77
2021/12/08 13:56:38;;;;;;;30.90;19.50;;;;;;;20.78;19.56;99014.41;7629386;32;37027;-76
2021/12/08 14:00:59;;;;;;;30.37;20.10;;;;;;;19.20;21.13;99020.34;7628158;32;39377;-77
2021/12/08 14:05:17;;;;;;;34.58;20.77;;;;;;;17.64;23.19;99028.13;7629172;32;39895;-77
2021/12/08 14:09:33;;;;;;;32.70;20.45;;;;;;;15.93;25.76;99047.56;7633069;32;38238;-76
2021/12/08 14:13:52;;;;;;;35.25;21.17;;;;;;;14.56;27.87;99054.88;7632515;32;37235;-76
2021/12/08 14:18:35;;;;;;;34.85;20.80;;;;;;;13.30;29.86;99055.78;7633340;32;38410;-77
2021/12/08 14:22:54;;;;;;;36.33;19.83;;;;;;;11.99;32.29;99052.28;7632400;32;39950;-79
2021/12/08 14:27:10;;;;;;;31.48;18.80;;;;;;;10.88;34.73;99065.31;7632128;32;38118;-78
2021/12/08 14:31:40;;;;;;;35.28;18.37;;;;;;;9.91;36.21;99060.84;7632165;32;36890;-81
2021/12/08 14:36:03;;;;;;;33.70;18.67;;;;;;;9.77;36.90;99061.47;7631120;32;39846;-82
2021/12/08 14:40:21;;;;;;;39.10;19.08;;;;;;;8.73;38.95;99058.81;7631594;32;40956;-80
2021/12/08 14:44:43;;;;;;;32.85;17.80;;;;;;;8.53;39.47;99059.69;7630857;32;37842;-82
2021/12/08 14:49:12;;;;;;;32.42;18.83;;;;;;;8.38;39.82;99069.50;7631592;32;37451;-81
2021/12/08 14:53:34;;;;;;;41.50;20.83;;;;;;;7.99;41.08;99063.84;7631705;32;39504;-81
2021/12/08 14:57:52;;;;;;;51.10;25.50;;;;;;;7.56;42.12;99074.94;7625360;32;40887;-82
2021/12/08 15:02:08;;;;;;;44.38;22.65;;;;;;;7.13;43.08;99077.81;7632444;32;38478;-80
2021/12/08 15:06:25;;;;;;;33.72;18.77;;;;;;;6.63;44.59;99065.69;7631938;32;37980;-79
2021/12/08 15:10:42;;;;;;;36.15;19.00;;;;;;;6.30;46.09;99054.16;7632034;32;40006;-80
2021/12/08 15:14:58;;;;;;;33.72;18.08;;;;;;;5.95;46.94;99047.41;7632085;32;40621;-80
2021/12/08 15:19:15;;;;;;;29.12;16.05;;;;;;;5.74;47.87;99051.00;7631340;32;38625;-80
2021/12/08 15:23:45;;;;;;;32.58;17.67;;;;;;;5.72;47.78;99048.56;7631820;32;37932;-79
2021/12/08 15:28:09;;;;;;;32.92;17.73;;;;;;;5.59;48.78;99049.81;7631331;32;40195;-80
2021/12/08 15:32:25;;;;;;;35.78;16.77;;;;;;;5.40;49.49;99048.56;7631823;32;40884;-80
2021/12/08 15:36:42;;;;;;;36.95;17.90;;;;;;;5.02;50.71;99061.16;7631817;32;37979;-78
2021/12/08 15:40:59;;;;;;;37.28;19.52;;;;;;;5.10;50.22;99067.97;7631748;32;36940;-79
2021/12/08 15:45:19;;;;;;;38.80;20.35;;;;;;;5.04;50.86;99062.50;7631815;32;39420;-80
2021/12/08 15:49:39;;;;;;;42.35;20.92;;;;;;;4.56;52.56;99057.88;7630664;32;40849;-79
2021/12/08 15:53:59;;;;;;;42.08;19.42;;;;;;;4.84;51.71;99071.19;7631905;32;37175;-79
2021/12/08 15:58:50;;;;;;;28.80;16.62;;;;;;;4.43;52.84;99064.44;7630930;32;37647;-78
2021/12/08 16:03:07;;;;;;;32.00;17.42;;;;;;;4.32;52.90;99063.50;7631604;32;39271;-78
2021/12/08 16:07:30;;;;;;;33.40;17.05;;;;;;;4.35;52.65;99060.31;7631569;32;39829;-78
2021/12/08 16:11:50;;;;;;;30.33;16.17;;;;;;;4.04;53.36;99062.56;7631319;32;38688;-78
2021/12/08 16:16:06;;;;;;;31.50;15.68;;;;;;;3.83;54.08;99050.66;7631499;32;37214;-78
2021/12/08 16:20:27;;;;;;;30.35;15.73;;;;;;;3.44;54.80;99071.28;7631348;32;40028;-78
2021/12/08 16:24:46;;;;;;;30.80;15.63;;;;;;;3.69;54.33;99081.66;7631193;32;40909;-78
2021/12/08 16:29:02;;;;;;;28.08;14.52;;;;;;;3.90;53.66;99090.94;7629956;32;38473;-78
2021/12/08 16:33:18;;;;;;;23.40;13.18;;;;;;;3.94;53.54;99086.66;7631115;32;37312;-77
2021/12/08 16:37:35;;;;;;;30.17;14.45;;;;;;;3.50;54.89;99090.00;7631079;32;39850;-78
2021/12/08 16:46:27;;;;;;;29.40;13.60;;;;;;;3.47;55.22;99082.38;7631150;32;38657;-78
2021/12/08 16:50:45;;;;;;;26.70;14.43;;;;;;;3.50;55.35;99089.16;7629524;32;37276;-78
2021/12/08 16:55:01;;;;;;;29.42;15.30;;;;;;;3.31;56.05;99094.78;7630875;32;40041;-77
2021/12/08 16:59:19;;;;;;;30.98;14.98;;;;;;;3.11;56.89;99097.06;7630605;32;39974;-77
2021/12/08 17:03:35;;;;;;;32.45;15.18;;;;;;;3.04;57.29;99104.47;7629063;32;37836;-77
2021/12/08 17:07:51;;;;;;;28.65;15.18;;;;;;;3.21;56.95;99099.97;7630399;32;37121;-77
2021/12/08 17:12:07;;;;;;;33.60;15.57;;;;;;;2.89;57.91;99100.41;7628944;32;39359;-76
2021/12/08 17:16:24;;;;;;;35.13;15.95;;;;;;;3.15;57.12;99093.66;7630281;32;40077;-76
2021/12/08 17:20:42;;;;;;;30.48;14.70;;;;;;;3.03;57.49;99090.19;7629788;32;38004;-77
2021/12/08 17:24:58;;;;;;;30.88;16.02;;;;;;;3.00;57.73;99102.25;7630196;32;36163;-78
2021/12/08 17:29:17;;;;;;;32.28;16.30;;;;;;;3.02;57.76;99099.34;7629949;32;39125;-79
2021/12/08 17:33:34;;;;;;;33.05;16.17;;;;;;;2.92;58.13;99099.94;7629559;32;40019;-79
2021/12/08 17:37:51;;;;;;;29.85;16.25;;;;;;;2.71;58.82;99097.88;7641294;32;37557;-77
2021/12/08 17:42:13;;;;;;;30.90;15.70;;;;;;;2.82;58.42;99094.34;7657353;32;37911;-79
2021/12/08 17:46:30;;;;;;;32.60;16.10;;;;;;;2.68;59.10;99092.97;7659446;32;39229;-79
2021/12/08 17:50:47;;;;;;;31.08;16.73;;;;;;;2.98;58.39;99082.84;7646222;32;41455;-79
2021/12/08 17:55:04;;;;;;;32.40;16.83;;;;;;;3.04;58.23;99085.63;7659263;32;37839;-78
2021/12/08 17:59:24;;;;;;;34.72;17.30;;;;;;;2.63;59.77;99083.72;7659039;32;37775;-78
2021/12/08 18:03:40;;;;;;;33.30;17.52;;;;;;;2.86;59.32;99089.31;7659019;32;37438;-79
2021/12/08 18:07:57;;;;;;;38.17;18.40;;;;;;;2.85;59.26;99085.00;7659127;32;40420;-79
2021/12/08 18:12:13;;;;;;;35.90;17.62;;;;;;;2.84;59.44;99081.47;7658638;32;37867;-78
2021/12/08 18:16:29;;;;;;;34.60;17.30;;;;;;;2.76;59.61;99092.59;7658898;32;37207;-78
2021/12/08 18:20:46;;;;;;;40.97;18.33;;;;;;;2.90;59.04;99093.13;7658610;32;40046;-78
2021/12/08 18:25:02;;;;;;;35.00;17.40;;;;;;;3.03;58.88;99100.16;7658507;32;39911;-78
2021/12/08 18:29:21;;;;;;;33.92;17.48;;;;;;;2.91;59.32;99100.16;7659159;32;37936;-77
2021/12/08 18:33:37;;;;;;;36.20;18.12;;;;;;;3.11;58.49;99103.28;7658380;32;36128;-77
2021/12/08 18:38:07;;;;;;;38.83;17.58;;;;;;;3.16;58.39;99106.06;7651986;32;39425;-78
2021/12/08 18:42:29;;;;;;;37.40;18.08;;;;;;;3.27;58.00;99107.06;7632156;32;40744;-78
2021/12/08 18:46:52;;;;;;;38.92;17.90;;;;;;;3.11;58.49;99115.94;7632547;32;37838;-78
2021/12/08 18:51:12;;;;;;;39.92;20.12;;;;;;;3.21;58.26;99105.34;7631241;32;37326;-78
2021/12/08 18:55:28;;;;;;;35.92;18.45;;;;;;;3.31;58.48;99092.09;7631019;32;39286;-78
2021/12/08 18:59:44;;;;;;;34.20;18.25;;;;;;;3.14;58.86;99093.87;7632799;32;39869;-77
2021/12/08 19:04:01;;;;;;;41.95;19.40;;;;;;;3.30;58.19;99089.62;7632588;32;37585;-76
2021/12/08 19:08:21;;;;;;;38.00;20.00;;;;;;;3.07;58.97;99090.53;7632719;32;37461;-78
2021/12/08 19:12:39;;;;;;;40.85;19.70;;;;;;;3.16;58.86;99087.22;7632743;32;38926;-77
2021/12/08 19:16:57;;;;;;;36.83;20.42;;;;;;;3.27;58.63;99087.41;7632594;32;40956;-77
2021/12/08 19:21:17;;;;;;;37.05;18.70;;;;;;;3.31;58.26;99097.47;7632511;32;37990;-79
2021/12/08 19:25:35;;;;;;;40.53;19.98;;;;;;;3.29;58.59;99104.94;7632372;32;37087;-77
2021/12/08 19:29:52;;;;;;;43.63;19.33;;;;;;;3.44;58.24;99100.91;7632483;32;41093;-77
2021/12/08 19:34:08;;;;;;;38.85;20.90;;;;;;;2.98;59.17;99098.16;7632369;32;40178;-77
2021/12/08 19:38:24;;;;;;;35.60;19.67;;;;;;;3.14;58.98;99099.25;7632332;32;38395;-77
2021/12/08 19:42:40;;;;;;;46.20;22.10;;;;;;;2.86;60.41;99095.50;7632273;32;36940;-79
2021/12/08 19:46:57;;;;;;;37.97;20.10;;;;;;;3.26;59.06;99094.69;7632188;32;39124;-78
2021/12/08 19:51:14;;;;;;;43.35;21.90;;;;;;;3.16;59.35;99089.09;7632142;32;40965;-77
2021/12/08 19:55:31;;;;;;;43.22;20.70;;;;;;;3.00;59.71;99096.88;7632070;32;38880;-77
2021/12/08 19:59:49;;;;;;;39.95;21.00;;;;;;;3.32;58.79;99079.41;7632120;32;37403;-78
2021/12/08 20:04:05;;;;;;;37.22;18.73;;;;;;;3.03;59.69;99097.44;7631535;32;40026;-78
2021/12/08 20:08:22;;;;;;;39.03;19.05;;;;;;;2.78;60.90;99103.97;7631954;32;40720;-78
2021/12/08 20:12:38;;;;;;;35.80;19.17;;;;;;;3.20;59.56;99111.78;7631793;32;38608;-77
2021/12/08 20:16:54;;;;;;;36.80;19.77;;;;;;;3.07;59.71;99090.53;7632218;32;37044;-77
2021/12/08 20:21:11;;;;;;;37.10;19.95;;;;;;;2.54;61.21;99087.84;7631877;32;39899;-77
2021/12/08 20:25:27;;;;;;;36.40;18.60;;;;;;;3.17;59.69;99085.31;7631505;32;39856;-77
2021/12/08 20:29:43;;;;;;;39.75;20.50;;;;;;;3.14;59.85;99083.94;7631768;32;37972;-77
2021/12/08 20:34:00;;;;;;;44.22;21.75;;;;;;;2.55;61.46;99094.03;7630468;32;37379;-77
2021/12/08 20:38:16;;;;;;;45.88;21.08;;;;;;;3.01;60.17;99086.91;7625941;32;40136;-78
2021/12/08 20:42:35;;;;;;;41.45;20.40;;;;;;;3.04;60.10;99070.28;7629121;32;40081;-76
2021/12/08 20:46:51;;;;;;;37.90;19.60;;;;;;;2.96;60.23;99060.69;7616815;32;37548;-78
2021/12/08 20:51:13;;;;;;;42.58;20.73;;;;;;;2.75;60.95;99061.38;7615755;32;37302;-77